logo
Search for airport 
image banner adimage banner adimage banner ad
image banner ad

SSOM - Hospital Estadual Walfredo Gurgel Heliport

Located in Natal, Brazil

ICAO - SSOM, IATA -

Data provided by Airmate  

General information

Coordinates: S16°49'5" W49°3'1"
Elevation is 2329 feet MSL.
 
View others Airports in Rio Grande do Norte

Operational data

Special qualification required
Current time UTC:
Current local time:
Weather at : SBGO - Santa Genoveva Airport ( 27 km )
METAR: SBGO 021700Z 34004KT 300V020 9999 SCT040 FEW045TCU 29/18 Q1016
TAF: TAF SBGO 020830Z 0212/0312 02005KT CAVOK TX31/0218Z TN20/0309Z BECMG 0214/0216 34008KT SCT040 FEW050TCU TEMPO 0219/0224 28008KT VCSH BECMG 0300/0302 36002KT FEW040 RMK PGD
View NOTAMs / SUP AIP / TFR affecting this airport [VIEW]
Communications frequencies: [VIEW]

Runways:

Airport contact information

Address: Natal Brazil

Satellite view of SSOM